sensor_id;sensor_type;location;lat;lon;timestamp;pressure;altitude;pressure_sealevel;temperature;humidity
55590;BME280;41452;42.780;23.116;2023-04-05T00:01:07;93869.97;;;-1.43;100.00
55590;BME280;41452;42.780;23.116;2023-04-05T00:03:33;93864.19;;;-1.45;100.00
55590;BME280;41452;42.780;23.116;2023-04-05T00:05:59;93844.97;;;-1.66;100.00
55590;BME280;41452;42.780;23.116;2023-04-05T00:08:26;93858.13;;;-1.52;100.00
55590;BME280;41452;42.780;23.116;2023-04-05T00:10:52;93852.28;;;-1.46;100.00
55590;BME280;41452;42.780;23.116;2023-04-05T00:13:18;93860.34;;;-1.49;100.00
55590;BME280;41452;42.780;23.116;2023-04-05T00:15:44;93833.69;;;-1.65;100.00
55590;BME280;41452;42.780;23.116;2023-04-05T00:18:10;93816.97;;;-1.69;100.00
55590;BME280;41452;42.780;23.116;2023-04-05T00:20:54;93842.31;;;-1.49;100.00
55590;BME280;41452;42.780;23.116;2023-04-05T00:23:20;93846.19;;;-1.54;100.00
55590;BME280;41452;42.780;23.116;2023-04-05T00:25:46;93816.00;;;-1.68;100.00
55590;BME280;41452;42.780;23.116;2023-04-05T00:28:12;93831.13;;;-1.65;100.00
55590;BME280;41452;42.780;23.116;2023-04-05T00:30:38;93847.97;;;-1.54;100.00
55590;BME280;41452;42.780;23.116;2023-04-05T00:33:03;93830.69;;;-1.77;100.00
55590;BME280;41452;42.780;23.116;2023-04-05T00:35:29;93856.81;;;-1.57;100.00
55590;BME280;41452;42.780;23.116;2023-04-05T00:37:55;93855.38;;;-1.51;100.00
55590;BME280;41452;42.780;23.116;2023-04-05T00:40:22;93861.31;;;-1.50;100.00
55590;BME280;41452;42.780;23.116;2023-04-05T00:42:47;93794.09;;;-1.95;100.00
55590;BME280;41452;42.780;23.116;2023-04-05T00:45:13;93838.50;;;-1.62;100.00
55590;BME280;41452;42.780;23.116;2023-04-05T00:47:40;93866.13;;;-1.47;100.00
55590;BME280;41452;42.780;23.116;2023-04-05T00:50:07;93829.56;;;-1.74;100.00
55590;BME280;41452;42.780;23.116;2023-04-05T00:52:34;93859.69;;;-1.51;100.00
55590;BME280;41452;42.780;23.116;2023-04-05T00:54:59;93865.69;;;-1.51;100.00
55590;BME280;41452;42.780;23.116;2023-04-05T00:57:25;93826.94;;;-1.66;100.00
55590;BME280;41452;42.780;23.116;2023-04-05T00:59:50;93855.00;;;-1.40;100.00
55590;BME280;41452;42.780;23.116;2023-04-05T01:04:56;93863.97;;;-1.36;100.00
55590;BME280;41452;42.780;23.116;2023-04-05T01:07:30;93864.13;;;-1.37;100.00
55590;BME280;41452;42.780;23.116;2023-04-05T01:10:02;93860.31;;;-1.41;100.00
55590;BME280;41452;42.780;23.116;2023-04-05T01:12:32;93847.44;;;-1.49;100.00
55590;BME280;41452;42.780;23.116;2023-04-05T01:14:59;93871.22;;;-1.31;100.00
55590;BME280;41452;42.780;23.116;2023-04-05T01:17:28;93868.63;;;-1.31;100.00
55590;BME280;41452;42.780;23.116;2023-04-05T01:19:58;93867.47;;;-1.28;100.00
55590;BME280;41452;42.780;23.116;2023-04-05T01:31:36;93869.75;;;-1.34;100.00
55590;BME280;41452;42.780;23.116;2023-04-05T01:36:54;93881.38;;;-1.38;100.00
55590;BME280;41452;42.780;23.116;2023-04-05T01:39:20;93890.72;;;-1.37;100.00
55590;BME280;41452;42.780;23.116;2023-04-05T01:41:47;93892.16;;;-1.34;100.00
55590;BME280;41452;42.780;23.116;2023-04-05T01:44:12;93892.47;;;-1.37;100.00
55590;BME280;41452;42.780;23.116;2023-04-05T01:46:38;93893.59;;;-1.31;100.00
55590;BME280;41452;42.780;23.116;2023-04-05T01:49:03;93860.69;;;-1.52;100.00
55590;BME280;41452;42.780;23.116;2023-04-05T01:51:29;93851.97;;;-1.51;100.00
55590;BME280;41452;42.780;23.116;2023-04-05T01:53:55;93887.03;;;-1.42;100.00
55590;BME280;41452;42.780;23.116;2023-04-05T01:56:20;93850.09;;;-1.58;100.00
55590;BME280;41452;42.780;23.116;2023-04-05T01:58:46;93859.69;;;-1.51;100.00
55590;BME280;41452;42.780;23.116;2023-04-05T02:01:11;93888.25;;;-1.30;100.00
55590;BME280;41452;42.780;23.116;2023-04-05T02:03:37;93878.63;;;-1.36;100.00
55590;BME280;41452;42.780;23.116;2023-04-05T02:06:03;93888.72;;;-1.26;100.00
55590;BME280;41452;42.780;23.116;2023-04-05T02:08:28;93865.47;;;-1.41;100.00
55590;BME280;41452;42.780;23.116;2023-04-05T02:10:54;93838.31;;;-1.60;100.00
55590;BME280;41452;42.780;23.116;2023-04-05T02:13:19;93889.88;;;-1.29;100.00
55590;BME280;41452;42.780;23.116;2023-04-05T02:15:48;93872.22;;;-1.40;100.00
55590;BME280;41452;42.780;23.116;2023-04-05T02:18:14;93890.19;;;-1.32;100.00
55590;BME280;41452;42.780;23.116;2023-04-05T02:20:40;93883.47;;;-1.33;100.00
55590;BME280;41452;42.780;23.116;2023-04-05T02:23:06;93888.91;;;-1.28;100.00
55590;BME280;41452;42.780;23.116;2023-04-05T02:25:32;93895.03;;;-1.29;100.00
55590;BME280;41452;42.780;23.116;2023-04-05T02:27:58;93889.72;;;-1.36;100.00
55590;BME280;41452;42.780;23.116;2023-04-05T02:30:23;93870.94;;;-1.44;100.00
55590;BME280;41452;42.780;23.116;2023-04-05T02:32:48;93895.97;;;-1.30;100.00
55590;BME280;41452;42.780;23.116;2023-04-05T02:35:14;93883.47;;;-1.41;100.00
55590;BME280;41452;42.780;23.116;2023-04-05T02:37:41;93859.22;;;-1.55;100.00
55590;BME280;41452;42.780;23.116;2023-04-05T02:40:07;93881.13;;;-1.51;100.00
55590;BME280;41452;42.780;23.116;2023-04-05T02:42:34;93894.59;;;-1.41;100.00
55590;BME280;41452;42.780;23.116;2023-04-05T02:45:00;93897.63;;;-1.37;100.00
55590;BME280;41452;42.780;23.116;2023-04-05T02:47:26;93879.28;;;-1.42;100.00
55590;BME280;41452;42.780;23.116;2023-04-05T02:49:51;93891.34;;;-1.35;100.00
55590;BME280;41452;42.780;23.116;2023-04-05T02:52:16;93883.16;;;-1.38;100.00
55590;BME280;41452;42.780;23.116;2023-04-05T02:54:42;93889.91;;;-1.37;100.00
55590;BME280;41452;42.780;23.116;2023-04-05T02:57:08;93895.34;;;-1.32;100.00
55590;BME280;41452;42.780;23.116;2023-04-05T02:59:37;93883.09;;;-1.30;100.00
55590;BME280;41452;42.780;23.116;2023-04-05T03:02:05;93866.78;;;-1.45;100.00
55590;BME280;41452;42.780;23.116;2023-04-05T03:04:31;93828.25;;;-1.70;100.00
55590;BME280;41452;42.780;23.116;2023-04-05T03:07:01;93872.22;;;-1.40;100.00
55590;BME280;41452;42.780;23.116;2023-04-05T03:09:31;93855.00;;;-1.48;100.00
55590;BME280;41452;42.780;23.116;2023-04-05T03:12:03;93888.72;;;-1.26;100.00
55590;BME280;41452;42.780;23.116;2023-04-05T03:14:30;93865.75;;;-1.36;100.00
55590;BME280;41452;42.780;23.116;2023-04-05T03:16:56;93870.81;;;-1.20;100.00
55590;BME280;41452;42.780;23.116;2023-04-05T03:19:23;93861.38;;;-1.27;100.00
55590;BME280;41452;42.780;23.116;2023-04-05T03:21:48;93873.41;;;-1.20;100.00
55590;BME280;41452;42.780;23.116;2023-04-05T03:24:15;93875.00;;;-1.19;100.00
55590;BME280;41452;42.780;23.116;2023-04-05T03:26:47;93878.88;;;-1.23;100.00
55590;BME280;41452;42.780;23.116;2023-04-05T03:29:13;93876.81;;;-1.27;100.00
55590;BME280;41452;42.780;23.116;2023-04-05T03:31:38;93821.00;;;-1.66;100.00
55590;BME280;41452;42.780;23.116;2023-04-05T03:34:04;93879.25;;;-1.26;100.00
55590;BME280;41452;42.780;23.116;2023-04-05T03:36:29;93882.44;;;-1.24;100.00
55590;BME280;41452;42.780;23.116;2023-04-05T03:38:57;93886.28;;;-1.20;100.00
55590;BME280;41452;42.780;23.116;2023-04-05T03:41:23;93872.47;;;-1.27;100.00
55590;BME280;41452;42.780;23.116;2023-04-05T03:43:48;93850.31;;;-1.36;100.00
55590;BME280;41452;42.780;23.116;2023-04-05T03:46:13;93881.66;;;-1.24;100.00
55590;BME280;41452;42.780;23.116;2023-04-05T03:48:39;93879.88;;;-1.24;100.00
55590;BME280;41452;42.780;23.116;2023-04-05T03:51:05;93880.81;;;-1.25;100.00
55590;BME280;41452;42.780;23.116;2023-04-05T03:53:31;93885.19;;;-1.25;100.00
55590;BME280;41452;42.780;23.116;2023-04-05T03:55:56;93885.97;;;-1.25;100.00
55590;BME280;41452;42.780;23.116;2023-04-05T03:58:24;93885.81;;;-1.23;100.00
55590;BME280;41452;42.780;23.116;2023-04-05T04:00:49;93889.84;;;-1.21;100.00
55590;BME280;41452;42.780;23.116;2023-04-05T04:03:17;93894.00;;;-1.20;100.00
55590;BME280;41452;42.780;23.116;2023-04-05T04:05:42;93903.00;;;-1.16;100.00
55590;BME280;41452;42.780;23.116;2023-04-05T04:08:07;93876.66;;;-1.26;100.00
55590;BME280;41452;42.780;23.116;2023-04-05T04:10:33;93847.44;;;-1.49;100.00
55590;BME280;41452;42.780;23.116;2023-04-05T04:12:59;93895.00;;;-1.21;100.00
55590;BME280;41452;42.780;23.116;2023-04-05T04:15:25;93893.38;;;-1.22;100.00
55590;BME280;41452;42.780;23.116;2023-04-05T04:17:50;93878.94;;;-1.31;100.00
55590;BME280;41452;42.780;23.116;2023-04-05T04:20:16;93915.56;;;-1.12;100.00
55590;BME280;41452;42.780;23.116;2023-04-05T04:22:41;93910.09;;;-1.18;100.00
55590;BME280;41452;42.780;23.116;2023-04-05T04:25:08;93904.06;;;-1.33;100.00
55590;BME280;41452;42.780;23.116;2023-04-05T04:27:39;93914.16;;;-1.23;100.00
55590;BME280;41452;42.780;23.116;2023-04-05T04:30:13;93916.41;;;-1.20;100.00
55590;BME280;41452;42.780;23.116;2023-04-05T04:32:41;93915.25;;;-1.18;100.00
55590;BME280;41452;42.780;23.116;2023-04-05T04:35:16;93898.88;;;-1.25;100.00
55590;BME280;41452;42.780;23.116;2023-04-05T04:37:57;93890.53;;;-1.35;100.00
55590;BME280;41452;42.780;23.116;2023-04-05T04:40:33;93894.72;;;-1.34;100.00
55590;BME280;41452;42.780;23.116;2023-04-05T04:43:06;93917.03;;;-1.18;100.00
55590;BME280;41452;42.780;23.116;2023-04-05T04:45:34;93908.53;;;-1.27;100.00
55590;BME280;41452;42.780;23.116;2023-04-05T04:48:02;93916.72;;;-1.23;100.00
55590;BME280;41452;42.780;23.116;2023-04-05T04:50:29;93902.94;;;-1.39;100.00
55590;BME280;41452;42.780;23.116;2023-04-05T04:52:57;93928.81;;;-1.24;100.00
55590;BME280;41452;42.780;23.116;2023-04-05T04:55:23;93923.38;;;-1.29;100.00
55590;BME280;41452;42.780;23.116;2023-04-05T04:57:54;93925.94;;;-1.29;100.00
55590;BME280;41452;42.780;23.116;2023-04-05T05:00:21;93930.31;;;-1.29;100.00
55590;BME280;41452;42.780;23.116;2023-04-05T05:02:46;93927.56;;;-1.28;100.00
55590;BME280;41452;42.780;23.116;2023-04-05T05:05:12;93928.53;;;-1.29;100.00
55590;BME280;41452;42.780;23.116;2023-04-05T05:07:39;93903.31;;;-1.42;100.00
55590;BME280;41452;42.780;23.116;2023-04-05T05:10:09;93923.84;;;-1.34;100.00
55590;BME280;41452;42.780;23.116;2023-04-05T05:12:36;93923.38;;;-1.37;100.00
55590;BME280;41452;42.780;23.116;2023-04-05T05:15:02;93921.88;;;-1.23;100.00
55590;BME280;41452;42.780;23.116;2023-04-05T05:17:27;93926.72;;;-1.20;100.00
55590;BME280;41452;42.780;23.116;2023-04-05T05:19:53;93924.28;;;-1.22;100.00
55590;BME280;41452;42.780;23.116;2023-04-05T05:22:18;93920.09;;;-1.23;100.00
55590;BME280;41452;42.780;23.116;2023-04-05T05:24:44;93922.97;;;-1.18;100.00
55590;BME280;41452;42.780;23.116;2023-04-05T05:27:09;93921.50;;;-1.12;100.00
55590;BME280;41452;42.780;23.116;2023-04-05T05:29:35;93924.28;;;-1.13;100.00
55590;BME280;41452;42.780;23.116;2023-04-05T05:32:00;93921.56;;;-1.20;100.00
55590;BME280;41452;42.780;23.116;2023-04-05T05:34:26;93931.16;;;-1.06;100.00
55590;BME280;41452;42.780;23.116;2023-04-05T05:36:53;93934.50;;;-0.97;100.00
55590;BME280;41452;42.780;23.116;2023-04-05T05:39:18;93933.63;;;-0.89;100.00
55590;BME280;41452;42.780;23.116;2023-04-05T05:41:44;93925.28;;;-0.91;100.00
55590;BME280;41452;42.780;23.116;2023-04-05T05:44:10;93934.09;;;-0.86;100.00
55590;BME280;41452;42.780;23.116;2023-04-05T05:46:35;93926.03;;;-0.83;100.00
55590;BME280;41452;42.780;23.116;2023-04-05T05:49:01;93921.53;;;-0.89;100.00
55590;BME280;41452;42.780;23.116;2023-04-05T05:51:26;93931.28;;;-0.99;100.00
55590;BME280;41452;42.780;23.116;2023-04-05T05:53:52;93928.19;;;-0.94;100.00
55590;BME280;41452;42.780;23.116;2023-04-05T05:56:17;93935.75;;;-0.93;100.00
55590;BME280;41452;42.780;23.116;2023-04-05T05:58:42;93943.47;;;-0.93;100.00
55590;BME280;41452;42.780;23.116;2023-04-05T06:01:08;93937.00;;;-0.89;100.00
55590;BME280;41452;42.780;23.116;2023-04-05T06:03:36;93940.34;;;-0.80;100.00
55590;BME280;41452;42.780;23.116;2023-04-05T06:06:02;93892.03;;;-1.09;100.00
55590;BME280;41452;42.780;23.116;2023-04-05T06:08:30;93939.06;;;-0.76;100.00
55590;BME280;41452;42.780;23.116;2023-04-05T06:10:56;93932.44;;;-0.79;100.00
55590;BME280;41452;42.780;23.116;2023-04-05T06:13:22;93936.97;;;-0.81;100.00
55590;BME280;41452;42.780;23.116;2023-04-05T06:15:48;93947.81;;;-0.85;100.00
55590;BME280;41452;42.780;23.116;2023-04-05T06:18:13;93928.66;;;-0.91;100.00
55590;BME280;41452;42.780;23.116;2023-04-05T06:20:39;93946.50;;;-0.81;100.00
55590;BME280;41452;42.780;23.116;2023-04-05T06:23:07;93938.41;;;-0.78;100.00
55590;BME280;41452;42.780;23.116;2023-04-05T06:25:32;93947.84;;;-0.62;100.00
55590;BME280;41452;42.780;23.116;2023-04-05T06:27:58;93941.97;;;-0.56;100.00
55590;BME280;41452;42.780;23.116;2023-04-05T06:30:23;93944.56;;;-0.56;100.00
55590;BME280;41452;42.780;23.116;2023-04-05T06:32:48;93935.44;;;-0.67;100.00
55590;BME280;41452;42.780;23.116;2023-04-05T06:35:19;93935.44;;;-0.67;100.00
55590;BME280;41452;42.780;23.116;2023-04-05T06:37:45;93957.78;;;-0.59;100.00
55590;BME280;41452;42.780;23.116;2023-04-05T06:40:11;93944.09;;;-0.60;100.00
55590;BME280;41452;42.780;23.116;2023-04-05T06:42:36;93955.50;;;-0.54;100.00
55590;BME280;41452;42.780;23.116;2023-04-05T06:45:02;93955.28;;;-0.67;100.00
55590;BME280;41452;42.780;23.116;2023-04-05T06:47:31;93964.72;;;-0.60;100.00
55590;BME280;41452;42.780;23.116;2023-04-05T06:49:57;93980.91;;;-0.66;100.00
55590;BME280;41452;42.780;23.116;2023-04-05T06:52:22;93950.09;;;-0.90;100.00
55590;BME280;41452;42.780;23.116;2023-04-05T06:54:47;93986.22;;;-0.67;100.00
55590;BME280;41452;42.780;23.116;2023-04-05T06:57:13;93986.38;;;-0.69;100.00
55590;BME280;41452;42.780;23.116;2023-04-05T06:59:38;93966.50;;;-0.83;100.00
55590;BME280;41452;42.780;23.116;2023-04-05T07:02:04;93995.72;;;-0.68;100.00
55590;BME280;41452;42.780;23.116;2023-04-05T07:04:29;93976.56;;;-0.73;100.00
55590;BME280;41452;42.780;23.116;2023-04-05T07:07:00;93965.38;;;-0.89;100.00
55590;BME280;41452;42.780;23.116;2023-04-05T07:09:26;93993.31;;;-0.69;100.00
55590;BME280;41452;42.780;23.116;2023-04-05T07:11:55;94004.91;;;-0.65;100.00
55590;BME280;41452;42.780;23.116;2023-04-05T07:14:21;93999.41;;;-0.62;100.00
55590;BME280;41452;42.780;23.116;2023-04-05T07:16:47;93984.19;;;-0.80;100.00
55590;BME280;41452;42.780;23.116;2023-04-05T07:19:12;94003.56;;;-0.53;100.00
55590;BME280;41452;42.780;23.116;2023-04-05T07:21:38;93978.31;;;-0.66;100.00
55590;BME280;41452;42.780;23.116;2023-04-05T07:24:03;94008.47;;;-0.43;100.00
55590;BME280;41452;42.780;23.116;2023-04-05T07:26:30;94016.75;;;-0.48;100.00
55590;BME280;41452;42.780;23.116;2023-04-05T07:28:59;94011.22;;;-0.45;100.00
55590;BME280;41452;42.780;23.116;2023-04-05T07:31:24;94017.78;;;-0.34;100.00
55590;BME280;41452;42.780;23.116;2023-04-05T07:33:51;94019.72;;;-0.36;100.00
55590;BME280;41452;42.780;23.116;2023-04-05T07:36:16;94024.09;;;-0.36;100.00
55590;BME280;41452;42.780;23.116;2023-04-05T07:38:42;93991.00;;;-0.56;100.00
55590;BME280;41452;42.780;23.116;2023-04-05T07:41:09;94032.31;;;-0.41;100.00
55590;BME280;41452;42.780;23.116;2023-04-05T07:43:35;93994.53;;;-0.57;100.00
55590;BME280;41452;42.780;23.116;2023-04-05T07:46:03;94028.44;;;-0.37;100.00
55590;BME280;41452;42.780;23.116;2023-04-05T07:48:29;94038.72;;;-0.29;100.00
55590;BME280;41452;42.780;23.116;2023-04-05T07:50:55;94045.66;;;-0.29;100.00
55590;BME280;41452;42.780;23.116;2023-04-05T07:53:21;94021.84;;;-0.40;100.00
55590;BME280;41452;42.780;23.116;2023-04-05T07:55:46;94043.69;;;-0.27;100.00
55590;BME280;41452;42.780;23.116;2023-04-05T07:58:12;94040.03;;;-0.33;100.00
55590;BME280;41452;42.780;23.116;2023-04-05T08:00:38;94040.44;;;-0.44;100.00
55590;BME280;41452;42.780;23.116;2023-04-05T08:03:03;94051.53;;;-0.44;100.00
55590;BME280;41452;42.780;23.116;2023-04-05T08:05:29;94041.53;;;-0.39;100.00
55590;BME280;41452;42.780;23.116;2023-04-05T08:07:55;94044.91;;;-0.38;100.00
55590;BME280;41452;42.780;23.116;2023-04-05T08:10:22;94054.72;;;-0.33;100.00
55590;BME280;41452;42.780;23.116;2023-04-05T08:12:48;94013.88;;;-0.53;100.00
55590;BME280;41452;42.780;23.116;2023-04-05T08:15:13;94022.56;;;-0.54;100.00
55590;BME280;41452;42.780;23.116;2023-04-05T08:17:39;94065.84;;;-0.33;100.00
55590;BME280;41452;42.780;23.116;2023-04-05T08:20:05;94065.38;;;-0.36;100.00
55590;BME280;41452;42.780;23.116;2023-04-05T08:22:31;94056.25;;;-0.47;100.00
55590;BME280;41452;42.780;23.116;2023-04-05T08:24:56;94060.25;;;-0.45;100.00
55590;BME280;41452;42.780;23.116;2023-04-05T08:27:21;94062.47;;;-0.33;100.00
55590;BME280;41452;42.780;23.116;2023-04-05T08:29:47;94070.84;;;-0.31;100.00
55590;BME280;41452;42.780;23.116;2023-04-05T08:32:13;94038.75;;;-0.60;100.00
55590;BME280;41452;42.780;23.116;2023-04-05T08:34:38;94063.75;;;-0.38;100.00
55590;BME280;41452;42.780;23.116;2023-04-05T08:37:04;94045.84;;;-0.62;100.00
55590;BME280;41452;42.780;23.116;2023-04-05T08:39:29;94058.28;;;-0.66;100.00
55590;BME280;41452;42.780;23.116;2023-04-05T08:42:22;94054.88;;;-0.66;100.00
55590;BME280;41452;42.780;23.116;2023-04-05T08:44:50;94027.91;;;-0.95;100.00
55590;BME280;41452;42.780;23.116;2023-04-05T08:47:22;94048.78;;;-0.73;100.00
55590;BME280;41452;42.780;23.116;2023-04-05T08:49:47;94069.47;;;-0.50;100.00
55590;BME280;41452;42.780;23.116;2023-04-05T08:52:13;94056.91;;;-0.53;100.00
55590;BME280;41452;42.780;23.116;2023-04-05T08:54:39;94070.50;;;-0.28;100.00
55590;BME280;41452;42.780;23.116;2023-04-05T08:57:04;94070.97;;;-0.25;100.00
55590;BME280;41452;42.780;23.116;2023-04-05T08:59:32;94079.84;;;-0.27;100.00
55590;BME280;41452;42.780;23.116;2023-04-05T09:02:01;94063.75;;;-0.38;100.00
55590;BME280;41452;42.780;23.116;2023-04-05T09:04:29;94004.59;;;-0.70;100.00
55590;BME280;41452;42.780;23.116;2023-04-05T09:06:57;94066.59;;;-0.24;100.00
55590;BME280;41452;42.780;23.116;2023-04-05T09:09:23;94080.44;;;-0.17;100.00
55590;BME280;41452;42.780;23.116;2023-04-05T09:11:49;94088.94;;;-0.08;100.00
55590;BME280;41452;42.780;23.116;2023-04-05T09:14:16;94089.06;;;-0.02;100.00
55590;BME280;41452;42.780;23.116;2023-04-05T09:16:42;94089.34;;;0.04;100.00
55590;BME280;41452;42.780;23.116;2023-04-05T09:19:08;94088.34;;;0.05;100.00
55590;BME280;41452;42.780;23.116;2023-04-05T09:22:03;94091.94;;;0.04;100.00
55590;BME280;41452;42.780;23.116;2023-04-05T09:24:33;94035.63;;;-0.24;100.00
55590;BME280;41452;42.780;23.116;2023-04-05T09:27:14;94046.25;;;-0.19;100.00
55590;BME280;41452;42.780;23.116;2023-04-05T09:29:42;94102.16;;;-0.11;100.00
55590;BME280;41452;42.780;23.116;2023-04-05T09:32:09;94079.19;;;-0.29;100.00
55590;BME280;41452;42.780;23.116;2023-04-05T09:34:35;94109.06;;;-0.35;100.00
55590;BME280;41452;42.780;23.116;2023-04-05T09:37:02;94096.94;;;-0.26;100.00
55590;BME280;41452;42.780;23.116;2023-04-05T09:39:36;94033.94;;;-0.71;100.00
55590;BME280;41452;42.780;23.116;2023-04-05T09:42:20;94103.69;;;-0.25;100.00
55590;BME280;41452;42.780;23.116;2023-04-05T09:44:59;94089.81;;;-0.24;100.00
55590;BME280;41452;42.780;23.116;2023-04-05T09:47:31;94091.41;;;-0.23;100.00
55590;BME280;41452;42.780;23.116;2023-04-05T09:49:57;94093.66;;;-0.20;100.00
55590;BME280;41452;42.780;23.116;2023-04-05T09:52:27;94087.91;;;-0.30;100.00
55590;BME280;41452;42.780;23.116;2023-04-05T09:54:54;94094.97;;;-0.24;100.00
55590;BME280;41452;42.780;23.116;2023-04-05T09:57:24;94091.91;;;-0.20;100.00
55590;BME280;41452;42.780;23.116;2023-04-05T09:59:54;94085.25;;;-0.14;100.00
55590;BME280;41452;42.780;23.116;2023-04-05T10:02:23;94087.94;;;-0.07;100.00
55590;BME280;41452;42.780;23.116;2023-04-05T10:04:49;94081.00;;;-0.07;100.00
55590;BME280;41452;42.780;23.116;2023-04-05T10:07:16;94083.59;;;-0.07;99.72
55590;BME280;41452;42.780;23.116;2023-04-05T10:09:43;94056.72;;;-0.21;100.00
55590;BME280;41452;42.780;23.116;2023-04-05T10:12:12;94065.53;;;-0.07;100.00
55590;BME280;41452;42.780;23.116;2023-04-05T10:14:38;94089.84;;;-0.01;100.00
55590;BME280;41452;42.780;23.116;2023-04-05T10:20:12;94091.22;;;-0.13;97.85
55590;BME280;41452;42.780;23.116;2023-04-05T10:25:23;94089.56;;;-0.06;100.00
55590;BME280;41452;42.780;23.116;2023-04-05T10:27:54;94090.25;;;0.11;100.00
55590;BME280;41452;42.780;23.116;2023-04-05T10:30:23;94077.56;;;0.01;97.87
55590;BME280;41452;42.780;23.116;2023-04-05T10:40:32;94069.69;;;-0.29;97.58
55590;BME280;41452;42.780;23.116;2023-04-05T10:42:59;94089.56;;;-0.06;97.73
55590;BME280;41452;42.780;23.116;2023-04-05T10:45:26;94096.13;;;-0.04;97.42
55590;BME280;41452;42.780;23.116;2023-04-05T10:48:47;94096.72;;;0.07;97.13
55590;BME280;41452;42.780;23.116;2023-04-05T10:50:46;94096.91;;;0.05;97.47
55590;BME280;41452;42.780;23.116;2023-04-05T10:53:12;94099.44;;;0.13;98.67
55590;BME280;41452;42.780;23.116;2023-04-05T10:55:39;94096.84;;;0.13;96.94
55590;BME280;41452;42.780;23.116;2023-04-05T10:58:05;94091.34;;;0.16;97.60
55590;BME280;41452;42.780;23.116;2023-04-05T11:00:32;94099.09;;;0.16;97.20
55590;BME280;41452;42.780;23.116;2023-04-05T11:02:57;94082.78;;;0.16;96.61
55590;BME280;41452;42.780;23.116;2023-04-05T11:05:34;94093.19;;;0.31;97.20
55590;BME280;41452;42.780;23.116;2023-04-05T11:08:06;94078.66;;;0.30;99.03
55590;BME280;41452;42.780;23.116;2023-04-05T11:10:36;94097.00;;;0.35;95.04
55590;BME280;41452;42.780;23.116;2023-04-05T11:13:04;94101.97;;;0.45;95.58
55590;BME280;41452;42.780;23.116;2023-04-05T11:15:31;94097.31;;;0.40;94.68
55590;BME280;41452;42.780;23.116;2023-04-05T11:20:47;94105.22;;;0.38;94.12
55590;BME280;41452;42.780;23.116;2023-04-05T11:23:17;94059.06;;;0.12;94.52
55590;BME280;41452;42.780;23.116;2023-04-05T11:25:54;94070.56;;;0.33;96.47
55590;BME280;41452;42.780;23.116;2023-04-05T11:28:41;94085.28;;;0.47;95.09
55590;BME280;41452;42.780;23.116;2023-04-05T11:31:19;94109.22;;;0.64;95.89
55590;BME280;41452;42.780;23.116;2023-04-05T11:36:12;94109.97;;;0.73;97.03
55590;BME280;41452;42.780;23.116;2023-04-05T11:38:42;94100.31;;;0.82;98.36
55590;BME280;41452;42.780;23.116;2023-04-05T11:41:11;94105.72;;;0.95;98.74
55590;BME280;41452;42.780;23.116;2023-04-05T11:43:37;94082.50;;;0.87;97.96
55590;BME280;41452;42.780;23.116;2023-04-05T11:46:03;94117.47;;;0.83;96.30
55590;BME280;41452;42.780;23.116;2023-04-05T11:48:29;94109.00;;;0.89;98.72
55590;BME280;41452;42.780;23.116;2023-04-05T11:50:55;94118.03;;;0.93;98.95
55590;BME280;41452;42.780;23.116;2023-04-05T11:53:21;94104.09;;;0.94;98.80
55590;BME280;41452;42.780;23.116;2023-04-05T11:55:48;94117.03;;;0.94;98.93
55590;BME280;41452;42.780;23.116;2023-04-05T11:58:24;94093.91;;;0.78;98.40
55590;BME280;41452;42.780;23.116;2023-04-05T12:01:04;94124.47;;;0.74;98.70
55590;BME280;41452;42.780;23.116;2023-04-05T12:03:30;94087.41;;;0.44;98.54
55590;BME280;41452;42.780;23.116;2023-04-05T12:06:00;94121.00;;;0.67;99.13
55590;BME280;41452;42.780;23.116;2023-04-05T12:11:07;94122.66;;;0.60;100.00
55590;BME280;41452;42.780;23.116;2023-04-05T12:13:33;94105.47;;;0.67;100.00
55590;BME280;41452;42.780;23.116;2023-04-05T12:16:03;94109.84;;;0.66;100.00
55590;BME280;41452;42.780;23.116;2023-04-05T12:18:34;94103.16;;;0.57;100.00
55590;BME280;41452;42.780;23.116;2023-04-05T12:21:07;94094.41;;;0.58;100.00
55590;BME280;41452;42.780;23.116;2023-04-05T12:23:33;94109.72;;;0.45;100.00
55590;BME280;41452;42.780;23.116;2023-04-05T12:25:59;94115.16;;;0.50;99.12
55590;BME280;41452;42.780;23.116;2023-04-05T12:28:25;94101.59;;;0.48;98.74
55590;BME280;41452;42.780;23.116;2023-04-05T12:30:52;94086.56;;;0.28;98.84
55590;BME280;41452;42.780;23.116;2023-04-05T12:33:30;94100.13;;;0.53;97.15
55590;BME280;41452;42.780;23.116;2023-04-05T12:35:57;94114.16;;;0.51;94.34
55590;BME280;41452;42.780;23.116;2023-04-05T12:38:28;94113.09;;;0.45;93.75
55590;BME280;41452;42.780;23.116;2023-04-05T12:40:58;94087.09;;;0.47;94.14
55590;BME280;41452;42.780;23.116;2023-04-05T12:43:24;94111.81;;;0.64;93.08
55590;BME280;41452;42.780;23.116;2023-04-05T12:45:52;94099.91;;;0.55;92.67
55590;BME280;41452;42.780;23.116;2023-04-05T12:48:21;94116.16;;;0.64;93.52
55590;BME280;41452;42.780;23.116;2023-04-05T12:50:48;94117.16;;;0.63;94.20
55590;BME280;41452;42.780;23.116;2023-04-05T12:53:23;94091.34;;;0.40;94.77
55590;BME280;41452;42.780;23.116;2023-04-05T12:55:52;94116.41;;;0.54;95.47
55590;BME280;41452;42.780;23.116;2023-04-05T12:58:19;94112.66;;;0.56;95.22
55590;BME280;41452;42.780;23.116;2023-04-05T13:00:45;94112.84;;;0.55;96.21
55590;BME280;41452;42.780;23.116;2023-04-05T13:03:18;94090.88;;;0.36;95.86
55590;BME280;41452;42.780;23.116;2023-04-05T13:05:48;94115.41;;;0.55;95.55
55590;BME280;41452;42.780;23.116;2023-04-05T13:08:14;94119.69;;;0.48;96.67
55590;BME280;41452;42.780;23.116;2023-04-05T13:10:40;94121.91;;;0.51;96.46
55590;BME280;41452;42.780;23.116;2023-04-05T13:13:05;94081.06;;;0.31;96.57
55590;BME280;41452;42.780;23.116;2023-04-05T13:15:31;94106.59;;;0.49;98.63
55590;BME280;41452;42.780;23.116;2023-04-05T13:17:57;94118.84;;;0.55;99.47
55590;BME280;41452;42.780;23.116;2023-04-05T13:20:22;94115.38;;;0.63;97.27